createdAt,value
2016-02-02T00:00:40.406Z,1007.03
2016-02-02T00:01:40.471Z,1007.01
2016-02-02T00:02:40.522Z,1006.98
2016-02-02T00:03:40.572Z,1006.95
2016-02-02T00:04:40.637Z,1006.86
2016-02-02T00:05:40.703Z,1006.94
2016-02-02T00:06:40.737Z,1006.93
2016-02-02T00:07:40.802Z,1006.96
2016-02-02T00:08:40.851Z,1007.06
2016-02-02T00:09:40.917Z,1007.02
2016-02-02T00:10:40.967Z,1007.01
2016-02-02T00:11:41.018Z,1006.77
2016-02-02T00:12:41.068Z,1006.86
2016-02-02T00:13:41.133Z,1006.82
2016-02-02T00:14:41.184Z,1006.78
2016-02-02T00:15:41.234Z,1006.77
2016-02-02T00:16:41.299Z,1006.71
2016-02-02T00:17:41.349Z,1006.71
2016-02-02T00:18:41.429Z,1006.68
2016-02-02T00:19:41.463Z,1006.73
2016-02-02T00:20:41.516Z,1006.62
2016-02-02T00:21:41.566Z,1006.8
2016-02-02T00:22:41.649Z,1006.74
2016-02-02T00:23:41.683Z,1006.71
2016-02-02T00:24:41.732Z,1006.75
2016-02-02T00:25:41.783Z,1006.76
2016-02-02T00:26:41.848Z,1006.73
2016-02-02T00:27:41.897Z,1006.79
2016-02-02T00:28:41.948Z,1006.8
2016-02-02T00:29:42.014Z,1006.78
2016-02-02T00:30:42.064Z,1006.7
2016-02-02T00:31:42.112Z,1006.81
2016-02-02T00:32:42.179Z,1006.81
2016-02-02T00:33:42.230Z,1006.65
2016-02-02T00:34:42.279Z,1006.81
2016-02-02T00:35:42.344Z,1006.78
2016-02-02T00:36:42.395Z,1006.69
2016-02-02T00:37:42.445Z,1006.76
2016-02-02T00:38:42.509Z,1006.74
2016-02-02T00:39:42.558Z,1006.68
2016-02-02T00:40:42.608Z,1006.72
2016-02-02T00:41:42.676Z,1006.72
2016-02-02T00:42:42.725Z,1006.65
2016-02-02T00:43:42.774Z,1006.66
2016-02-02T00:44:42.840Z,1006.72
2016-02-02T00:45:42.890Z,1006.78
2016-02-02T00:46:42.940Z,1006.67
2016-02-02T00:47:43.004Z,1006.7
2016-02-02T00:48:43.055Z,1006.66
2016-02-02T00:49:43.105Z,1006.74
2016-02-02T00:50:43.169Z,1006.6
2016-02-02T00:51:43.219Z,1006.53
2016-02-02T00:52:43.269Z,1006.65
2016-02-02T00:53:43.336Z,1006.73
2016-02-02T00:54:43.384Z,1006.64
2016-02-02T00:55:43.434Z,1006.63
2016-02-02T00:56:43.499Z,1006.63
2016-02-02T00:57:43.550Z,1006.66
2016-02-02T00:58:43.600Z,1006.61
2016-02-02T00:59:43.650Z,1006.68
2016-02-02T01:00:43.721Z,1006.55
2016-02-02T01:01:43.771Z,1006.65
2016-02-02T01:02:43.821Z,1006.61
2016-02-02T01:03:43.885Z,1006.66
2016-02-02T01:04:43.935Z,1006.66
2016-02-02T01:05:43.985Z,1006.46
2016-02-02T01:06:44.049Z,1006.6
2016-02-02T01:07:44.101Z,1006.56
2016-02-02T01:08:44.150Z,1006.53
2016-02-02T01:09:44.216Z,1006.68
2016-02-02T01:10:44.265Z,1006.58
2016-02-02T01:11:44.331Z,1006.7
2016-02-02T01:12:44.381Z,1006.54
2016-02-02T01:13:44.430Z,1006.54
2016-02-02T01:14:44.479Z,1006.47
2016-02-02T01:15:44.545Z,1006.42
2016-02-02T01:16:44.595Z,1006.44
2016-02-02T01:17:44.644Z,1006.46
2016-02-02T01:18:44.695Z,1006.5
2016-02-02T01:19:44.759Z,1006.55
2016-02-02T01:20:44.809Z,1006.68
2016-02-02T01:21:44.874Z,1006.58
2016-02-02T01:22:44.923Z,1006.66
2016-02-02T01:23:44.973Z,1006.6
2016-02-02T01:24:45.039Z,1006.7
2016-02-02T01:25:45.089Z,1006.61
2016-02-02T01:26:45.137Z,1006.58
2016-02-02T01:27:45.203Z,1006.64
2016-02-02T01:28:45.246Z,1006.63
2016-02-02T01:29:45.311Z,1006.44
2016-02-02T01:30:45.363Z,1006.65
2016-02-02T01:31:45.412Z,1006.56
2016-02-02T01:32:45.479Z,1006.51
2016-02-02T01:33:45.528Z,1006.55
2016-02-02T01:34:45.578Z,1006.62
2016-02-02T01:35:45.628Z,1006.55
2016-02-02T01:36:45.695Z,1006.59
2016-02-02T01:37:45.744Z,1006.48
2016-02-02T01:38:45.808Z,1006.62
2016-02-02T01:39:45.860Z,1006.52
2016-02-02T01:40:45.910Z,1006.49
2016-02-02T01:41:45.960Z,1006.43
2016-02-02T01:42:46.024Z,1006.37
2016-02-02T01:43:46.074Z,1006.57
2016-02-02T01:44:46.125Z,1006.29
2016-02-02T01:45:46.175Z,1006.42
2016-02-02T01:46:46.239Z,1006.45
2016-02-02T01:47:46.288Z,1006.49
2016-02-02T01:48:46.342Z,1006.47
2016-02-02T01:49:46.406Z,1006.43
2016-02-02T01:50:46.456Z,1006.46
2016-02-02T01:51:46.508Z,1006.51
2016-02-02T01:52:46.575Z,1006.52
2016-02-02T01:53:46.624Z,1006.41
2016-02-02T01:54:46.672Z,1006.46
2016-02-02T01:55:46.725Z,1006.38
2016-02-02T01:56:46.791Z,1006.34
2016-02-02T01:57:46.841Z,1006.3
2016-02-02T01:58:46.889Z,1006.35
2016-02-02T01:59:46.940Z,1006.35
2016-02-02T02:00:47.007Z,1006.44
2016-02-02T02:01:47.056Z,1006.49
2016-02-02T02:02:47.106Z,1006.51
2016-02-02T02:03:47.171Z,1006.44
2016-02-02T02:04:47.221Z,1006.42
2016-02-02T02:05:47.272Z,1006.51
2016-02-02T02:06:47.337Z,1006.59
2016-02-02T02:07:47.387Z,1006.54
2016-02-02T02:08:47.437Z,1006.52
2016-02-02T02:09:47.502Z,1006.58
2016-02-02T02:10:47.567Z,1006.61
2016-02-02T02:11:47.601Z,1006.58
2016-02-02T02:12:47.667Z,1006.61
2016-02-02T02:13:47.717Z,1006.65
2016-02-02T02:14:47.766Z,1006.61
2016-02-02T02:15:47.832Z,1006.56
2016-02-02T02:16:47.889Z,1006.54
2016-02-02T02:17:47.939Z,1006.61
2016-02-02T02:18:47.987Z,1006.44
2016-02-02T02:19:48.052Z,1006.46
2016-02-02T02:20:48.102Z,1006.44
2016-02-02T02:21:48.153Z,1006.5
2016-02-02T02:22:48.218Z,1006.46
2016-02-02T02:23:48.267Z,1006.46
2016-02-02T02:24:48.318Z,1006.43
2016-02-02T02:25:48.371Z,1006.42
2016-02-02T02:26:48.435Z,1006.44
2016-02-02T02:27:48.485Z,1006.34
2016-02-02T02:28:48.551Z,1006.31
2016-02-02T02:29:48.587Z,1006.38
2016-02-02T02:30:48.636Z,1006.29
2016-02-02T02:31:48.701Z,1006.35
2016-02-02T02:32:48.751Z,1006.43
2016-02-02T02:33:48.816Z,1006.39
2016-02-02T02:34:48.865Z,1006.43
2016-02-02T02:35:48.915Z,1006.4
2016-02-02T02:36:48.981Z,1006.44
2016-02-02T02:37:49.031Z,1006.44
2016-02-02T02:38:49.079Z,1006.44
2016-02-02T02:39:49.128Z,1006.41
2016-02-02T02:40:49.194Z,1006.43
2016-02-02T02:41:49.244Z,1006.48
2016-02-02T02:42:49.295Z,1006.44
2016-02-02T02:43:49.359Z,1006.39
2016-02-02T02:44:49.410Z,1006.44
2016-02-02T02:45:49.474Z,1006.35
2016-02-02T02:46:49.511Z,1006.28
2016-02-02T02:47:49.576Z,1006.29
2016-02-02T02:48:49.626Z,1006.29
2016-02-02T02:49:49.676Z,1006.29
2016-02-02T02:50:49.740Z,1006.36
2016-02-02T02:51:49.791Z,1006.33
2016-02-02T02:52:49.841Z,1006.29
2016-02-02T02:53:49.907Z,1006.37
2016-02-02T02:54:49.955Z,1006.46
2016-02-02T02:55:50.005Z,1006.33
2016-02-02T02:56:50.074Z,1006.47
2016-02-02T02:57:50.124Z,1006.35
2016-02-02T02:58:50.175Z,1006.42
2016-02-02T02:59:50.243Z,1006.39
2016-02-02T03:00:50.277Z,1006.43
2016-02-02T03:01:50.343Z,1006.27
2016-02-02T03:02:50.392Z,1006.45
2016-02-02T03:03:50.458Z,1006.43
2016-02-02T03:04:50.495Z,1006.33
2016-02-02T03:05:50.546Z,1006.31
2016-02-02T03:06:50.612Z,1006.31
2016-02-02T03:07:50.661Z,1006.33
2016-02-02T03:08:50.710Z,1006.22
2016-02-02T03:09:50.776Z,1006.34
2016-02-02T03:10:50.826Z,1006.32
2016-02-02T03:11:50.892Z,1006.2
2016-02-02T03:12:50.926Z,1006.22
2016-02-02T03:13:50.994Z,1006.25
2016-02-02T03:14:51.046Z,1006.33
2016-02-02T03:15:51.095Z,1006.28
2016-02-02T03:16:51.160Z,1006.32
2016-02-02T03:17:51.210Z,1006.19
2016-02-02T03:18:51.260Z,1006.23
2016-02-02T03:19:51.325Z,1006.23
2016-02-02T03:20:51.375Z,1006.34
2016-02-02T03:21:51.424Z,1006.32
2016-02-02T03:22:51.475Z,1006.34
2016-02-02T03:23:51.539Z,1006.2
2016-02-02T03:24:51.593Z,1006.43
2016-02-02T03:25:51.643Z,1006.31
2016-02-02T03:26:51.708Z,1006.48
2016-02-02T03:27:51.759Z,1006.35
2016-02-02T03:28:51.811Z,1006.24
2016-02-02T03:29:51.862Z,1006.31
2016-02-02T03:30:51.918Z,1006.31
2016-02-02T03:31:51.968Z,1006.44
2016-02-02T03:32:52.033Z,1006.39
2016-02-02T03:33:52.085Z,1006.33
2016-02-02T03:34:52.135Z,1006.36
2016-02-02T03:35:52.184Z,1006.52
2016-02-02T03:36:52.249Z,1006.45
2016-02-02T03:37:52.299Z,1006.48
2016-02-02T03:38:52.350Z,1006.5
2016-02-02T03:39:52.414Z,1006.52
2016-02-02T03:40:52.463Z,1006.45
2016-02-02T03:41:52.529Z,1006.66
2016-02-02T03:42:52.562Z,1006.56
2016-02-02T03:43:52.615Z,1006.51
2016-02-02T03:44:52.653Z,1006.54
2016-02-02T03:45:52.692Z,1006.51
2016-02-02T03:46:52.747Z,1006.6
2016-02-02T03:47:52.787Z,1006.5
2016-02-02T03:48:52.832Z,1006.61
2016-02-02T03:49:52.880Z,1006.67
2016-02-02T03:50:52.942Z,1006.61
2016-02-02T03:51:52.988Z,1006.55
2016-02-02T03:52:53.049Z,1006.61
2016-02-02T03:53:53.097Z,1006.54
2016-02-02T03:54:53.146Z,1006.61
2016-02-02T03:55:53.194Z,1006.67
2016-02-02T03:56:53.257Z,1006.55
2016-02-02T03:57:53.306Z,1006.57
2016-02-02T03:58:53.371Z,1006.59
2016-02-02T03:59:53.420Z,1006.66
2016-02-02T04:00:53.468Z,1006.65
2016-02-02T04:01:53.517Z,1006.61
2016-02-02T04:02:53.583Z,1006.59
2016-02-02T04:03:53.620Z,1006.59
2016-02-02T04:04:53.685Z,1006.61
2016-02-02T04:05:53.733Z,1006.62
2016-02-02T04:06:53.802Z,1006.61
2016-02-02T04:07:53.851Z,1006.66
2016-02-02T04:08:53.900Z,1006.66
2016-02-02T04:09:53.949Z,1006.67
2016-02-02T04:10:54.016Z,1006.61
2016-02-02T04:11:54.066Z,1006.6
2016-02-02T04:12:54.115Z,1006.52
2016-02-02T04:13:54.180Z,1006.59
2016-02-02T04:14:54.230Z,1006.48
2016-02-02T04:15:54.281Z,1006.59
2016-02-02T04:16:54.342Z,1006.47
2016-02-02T04:17:54.392Z,1006.54
2016-02-02T04:18:54.442Z,1006.5
2016-02-02T04:19:54.509Z,1006.56
2016-02-02T04:20:54.557Z,1006.57
2016-02-02T04:21:54.606Z,1006.58
2016-02-02T04:22:54.656Z,1006.53
2016-02-02T04:23:54.723Z,1006.5
2016-02-02T04:24:54.773Z,1006.57
2016-02-02T04:25:54.837Z,1006.54
2016-02-02T04:26:54.888Z,1006.41
2016-02-02T04:27:54.938Z,1006.7
2016-02-02T04:28:54.988Z,1006.62
2016-02-02T04:29:55.037Z,1006.59
2016-02-02T04:30:55.103Z,1006.48
2016-02-02T04:31:55.154Z,1006.54
2016-02-02T04:32:55.218Z,1006.53
2016-02-02T04:33:55.268Z,1006.48
2016-02-02T04:34:55.662Z,1006.46
2016-02-02T04:35:55.836Z,1006.57
2016-02-02T04:36:56.027Z,1006.52
2016-02-02T04:37:55.858Z,1006.48
2016-02-02T04:38:55.829Z,1006.48
2016-02-02T04:39:55.926Z,1006.6
2016-02-02T04:40:55.976Z,1006.45
2016-02-02T04:41:56.230Z,1006.58
2016-02-02T04:42:56.091Z,1006.57
2016-02-02T04:43:56.141Z,1006.46
2016-02-02T04:44:55.863Z,1006.45
2016-02-02T04:45:55.912Z,1006.54
2016-02-02T04:46:55.977Z,1006.54
2016-02-02T04:47:56.463Z,1006.49
2016-02-02T04:48:57.374Z,1006.4
2016-02-02T04:49:56.548Z,1006.43
2016-02-02T04:50:56.519Z,1006.45
2016-02-02T04:51:56.757Z,1006.47
2016-02-02T04:52:56.291Z,1006.41
2016-02-02T04:53:56.356Z,1006.47
2016-02-02T04:54:56.405Z,1006.39
2016-02-02T04:55:56.471Z,1006.49
2016-02-02T04:56:56.521Z,1006.44
2016-02-02T04:57:56.571Z,1006.4
2016-02-02T04:58:56.620Z,1006.44
2016-02-02T04:59:56.670Z,1006.36
2016-02-02T05:00:56.736Z,1006.37
2016-02-02T05:01:56.787Z,1006.29
2016-02-02T05:02:56.852Z,1006.42
2016-02-02T05:03:56.901Z,1006.35
2016-02-02T05:04:56.952Z,1006.34
2016-02-02T05:05:57.001Z,1006.29
2016-02-02T05:06:57.067Z,1006.25
2016-02-02T05:07:57.117Z,1006.35
2016-02-02T05:08:57.167Z,1006.33
2016-02-02T05:09:57.216Z,1006.32
2016-02-02T05:10:57.281Z,1006.41
2016-02-02T05:11:57.334Z,1006.27
2016-02-02T05:12:57.383Z,1006.31
2016-02-02T05:13:57.437Z,1006.2
2016-02-02T05:14:57.501Z,1006.4
2016-02-02T05:15:57.551Z,1006.25
2016-02-02T05:16:57.601Z,1006.27
2016-02-02T05:17:57.667Z,1006.23
2016-02-02T05:18:57.715Z,1006.24
2016-02-02T05:19:57.764Z,1006.28
2016-02-02T05:20:57.830Z,1006.28
2016-02-02T05:21:57.881Z,1006.34
2016-02-02T05:22:57.930Z,1006.28
2016-02-02T05:23:57.979Z,1006.28
2016-02-02T05:24:58.045Z,1006.21
2016-02-02T05:25:58.095Z,1006.17
2016-02-02T05:26:58.145Z,1006.23
2016-02-02T05:27:58.210Z,1006.26
2016-02-02T05:28:58.260Z,1006.12
2016-02-02T05:29:58.316Z,1006.12
2016-02-02T05:30:58.365Z,1006.18
2016-02-02T05:31:58.414Z,1006.22
2016-02-02T05:32:58.479Z,1006.27
2016-02-02T05:33:58.530Z,1006.34
2016-02-02T05:34:58.579Z,1006.18
2016-02-02T05:35:58.644Z,1006.18
2016-02-02T05:36:58.694Z,1006.23
2016-02-02T05:37:58.760Z,1006.22
2016-02-02T05:38:58.808Z,1006.22
2016-02-02T05:39:58.855Z,1006.29
2016-02-02T05:40:58.920Z,1006.09
2016-02-02T05:41:58.970Z,1006.24
2016-02-02T05:42:59.020Z,1006.22
2016-02-02T05:43:59.073Z,1006.2
2016-02-02T05:44:59.139Z,1006.22
2016-02-02T05:45:59.188Z,1006.27
2016-02-02T05:46:59.238Z,1006.2
2016-02-02T05:47:59.303Z,1006.26
2016-02-02T05:48:59.352Z,1006.27
2016-02-02T05:49:59.403Z,1006.24
2016-02-02T05:50:59.452Z,1006.25
2016-02-02T05:51:59.517Z,1006.24
2016-02-02T05:52:59.567Z,1006.15
2016-02-02T05:53:59.618Z,1006.15
2016-02-02T05:54:59.667Z,1006.07
2016-02-02T05:55:59.732Z,1006.17
2016-02-02T05:56:59.781Z,1006.15
2016-02-02T05:57:59.831Z,1006.19
2016-02-02T05:58:59.897Z,1006.07
2016-02-02T05:59:59.946Z,1006.12
2016-02-02T06:00:59.991Z,1006.07
2016-02-02T06:02:00.059Z,1006.02
2016-02-02T06:03:00.110Z,1006.05
2016-02-02T06:04:00.174Z,1006
2016-02-02T06:05:00.224Z,1006.08
2016-02-02T06:06:00.273Z,1005.92
2016-02-02T06:07:00.324Z,1006.05
2016-02-02T06:08:00.373Z,1006.03
2016-02-02T06:09:00.454Z,1005.99
2016-02-02T06:10:00.488Z,1006.05
2016-02-02T06:11:00.538Z,1006.14
2016-02-02T06:12:00.604Z,1006.16
2016-02-02T06:13:00.652Z,1006.14
2016-02-02T06:14:00.702Z,1006.15
2016-02-02T06:15:00.755Z,1006.12
2016-02-02T06:16:00.835Z,1006.16
2016-02-02T06:17:00.869Z,1006.15
2016-02-02T06:18:00.919Z,1006.06
2016-02-02T06:19:00.986Z,1006.05
2016-02-02T06:20:01.037Z,1006.14
2016-02-02T06:21:01.086Z,1006.18
2016-02-02T06:22:01.135Z,1006.19
2016-02-02T06:23:01.201Z,1006.23
2016-02-02T06:24:01.251Z,1006.19
2016-02-02T06:25:01.301Z,1006.18
2016-02-02T06:26:01.353Z,1006.22
2016-02-02T06:27:01.419Z,1006.22
2016-02-02T06:28:01.469Z,1006.25
2016-02-02T06:29:01.518Z,1006.17
2016-02-02T06:30:01.583Z,1006.24
2016-02-02T06:31:01.642Z,1006.19
2016-02-02T06:32:01.693Z,1006.19
2016-02-02T06:33:01.726Z,1006.17
2016-02-02T06:34:01.791Z,1006.18
2016-02-02T06:35:01.840Z,1006.23
2016-02-02T06:36:01.891Z,1006.11
2016-02-02T06:37:01.957Z,1006.07
2016-02-02T06:38:02.007Z,1006.13
2016-02-02T06:39:02.055Z,1006.15
2016-02-02T06:40:02.121Z,1006.14
2016-02-02T06:41:02.171Z,1006.2
2016-02-02T06:42:02.220Z,1006.26
2016-02-02T06:43:02.285Z,1006.21
2016-02-02T06:44:02.335Z,1006.21
2016-02-02T06:45:02.401Z,1006.23
2016-02-02T06:46:02.434Z,1006.17
2016-02-02T06:47:02.499Z,1006.28
2016-02-02T06:48:02.548Z,1006.31
2016-02-02T06:49:02.599Z,1006.33
2016-02-02T06:50:02.664Z,1006.33
2016-02-02T06:51:02.712Z,1006.34
2016-02-02T06:52:02.763Z,1006.32
2016-02-02T06:53:02.814Z,1006.36
2016-02-02T06:54:02.879Z,1006.31
2016-02-02T06:55:02.927Z,1006.42
2016-02-02T06:56:02.977Z,1006.45
2016-02-02T06:57:03.044Z,1006.47
2016-02-02T06:58:03.095Z,1006.52
2016-02-02T06:59:03.144Z,1006.53
2016-02-02T07:00:03.209Z,1006.35
2016-02-02T07:01:03.260Z,1006.45
2016-02-02T07:02:03.311Z,1006.51
2016-02-02T07:03:03.361Z,1006.51
2016-02-02T07:04:03.425Z,1006.47
2016-02-02T07:05:03.475Z,1006.46
2016-02-02T07:06:03.525Z,1006.46
2016-02-02T07:07:03.575Z,1006.35
2016-02-02T07:08:03.639Z,1006.3
2016-02-02T07:09:03.691Z,1006.44
2016-02-02T07:10:03.740Z,1006.49
2016-02-02T07:11:03.805Z,1006.45
2016-02-02T07:12:03.854Z,1006.44
2016-02-02T07:13:03.909Z,1006.46
2016-02-02T07:14:03.959Z,1006.46
2016-02-02T07:15:04.008Z,1006.47
2016-02-02T07:16:04.073Z,1006.51
2016-02-02T07:17:04.122Z,1006.52
2016-02-02T07:18:04.174Z,1006.6
2016-02-02T07:19:04.239Z,1006.54
2016-02-02T07:20:04.288Z,1006.52
2016-02-02T07:21:04.342Z,1006.54
2016-02-02T07:22:04.393Z,1006.5
2016-02-02T07:23:04.442Z,1006.46
2016-02-02T07:24:04.507Z,1006.54
2016-02-02T07:25:04.556Z,1006.47
2016-02-02T07:26:04.605Z,1006.5
2016-02-02T07:27:04.668Z,1006.46
2016-02-02T07:28:04.718Z,1006.49
2016-02-02T07:29:04.783Z,1006.46
2016-02-02T07:30:04.817Z,1006.41
2016-02-02T07:31:04.879Z,1006.52
2016-02-02T07:32:04.943Z,1006.52
2016-02-02T07:33:06.167Z,1006.5
2016-02-02T07:34:06.077Z,1006.54
2016-02-02T07:35:05.194Z,1006.55
2016-02-02T07:36:05.134Z,1006.47
2016-02-02T07:37:05.262Z,1006.5
2016-02-02T07:38:05.248Z,1006.54
2016-02-02T07:39:05.298Z,1006.57
2016-02-02T07:40:05.370Z,1006.57
2016-02-02T07:41:05.421Z,1006.62
2016-02-02T07:42:05.469Z,1006.58
2016-02-02T07:43:05.535Z,1006.62
2016-02-02T07:44:05.569Z,1006.55
2016-02-02T07:45:05.635Z,1006.54
2016-02-02T07:46:05.684Z,1006.61
2016-02-02T07:47:05.733Z,1006.58
2016-02-02T07:48:05.784Z,1006.62
2016-02-02T07:49:05.850Z,1006.59
2016-02-02T07:50:05.900Z,1006.58
2016-02-02T07:51:05.951Z,1006.45
2016-02-02T07:52:06.002Z,1006.51
2016-02-02T07:53:06.051Z,1006.54
2016-02-02T07:54:06.117Z,1006.51
2016-02-02T07:55:06.170Z,1006.53
2016-02-02T07:56:06.220Z,1006.51
2016-02-02T07:57:06.269Z,1006.52
2016-02-02T07:58:06.335Z,1006.52
2016-02-02T07:59:06.386Z,1006.54
2016-02-02T08:00:06.436Z,1006.58
2016-02-02T08:01:06.485Z,1006.54
2016-02-02T08:02:06.551Z,1006.56
2016-02-02T08:03:06.601Z,1006.59
2016-02-02T08:04:06.651Z,1006.44
2016-02-02T08:05:06.729Z,1006.61
2016-02-02T08:06:06.763Z,1006.5
2016-02-02T08:07:06.814Z,1006.48
2016-02-02T08:08:06.865Z,1006.52
2016-02-02T08:09:06.914Z,1006.43
2016-02-02T08:10:06.978Z,1006.41
2016-02-02T08:11:07.028Z,1006.42
2016-02-02T08:12:07.093Z,1006.42
2016-02-02T08:13:07.128Z,1006.4
2016-02-02T08:14:07.184Z,1006.46
2016-02-02T08:15:07.238Z,1006.37
2016-02-02T08:16:07.290Z,1006.44
2016-02-02T08:17:07.339Z,1006.41
2016-02-02T08:18:07.404Z,1006.42
2016-02-02T08:19:07.454Z,1006.45
2016-02-02T08:20:07.503Z,1006.43
2016-02-02T08:21:07.556Z,1006.45
2016-02-02T08:22:07.621Z,1006.43
2016-02-02T08:23:07.671Z,1006.41
2016-02-02T08:24:07.720Z,1006.4
2016-02-02T08:25:07.770Z,1006.41
2016-02-02T08:26:07.837Z,1006.37
2016-02-02T08:27:07.885Z,1006.34
2016-02-02T08:28:07.937Z,1006.39
2016-02-02T08:29:07.987Z,1006.4
2016-02-02T08:30:08.040Z,1006.4
2016-02-02T08:31:08.105Z,1006.39
2016-02-02T08:32:08.155Z,1006.41
2016-02-02T08:33:08.204Z,1006.4
2016-02-02T08:34:08.254Z,1006.38
2016-02-02T08:35:08.319Z,1006.28
2016-02-02T08:36:08.369Z,1006.32
2016-02-02T08:37:08.418Z,1006.32
2016-02-02T08:38:08.499Z,1006.23
2016-02-02T08:39:08.534Z,1006.25
2016-02-02T08:40:08.583Z,1006.22
2016-02-02T08:41:08.632Z,1006.22
2016-02-02T08:42:08.683Z,1006.16
2016-02-02T08:43:08.749Z,1006.2
2016-02-02T08:44:08.798Z,1006.14
2016-02-02T08:45:08.847Z,1006.19
2016-02-02T08:46:08.897Z,1006.22
2016-02-02T08:47:08.965Z,1006.2
2016-02-02T08:48:09.015Z,1006.18
2016-02-02T08:49:09.065Z,1006.19
2016-02-02T08:50:09.113Z,1006.16
2016-02-02T08:51:09.179Z,1006.11
2016-02-02T08:52:09.231Z,1006.16
2016-02-02T08:53:09.281Z,1006.12
2016-02-02T08:54:09.329Z,1006.14
2016-02-02T08:55:09.378Z,1006.06
2016-02-02T08:56:09.449Z,1006
2016-02-02T08:57:09.498Z,1006.03
2016-02-02T08:58:09.554Z,1006.02
2016-02-02T08:59:09.603Z,1005.9
2016-02-02T09:00:09.653Z,1005.96
2016-02-02T09:01:09.703Z,1005.92
2016-02-02T09:02:09.768Z,1005.91
2016-02-02T09:03:09.818Z,1005.89
2016-02-02T09:04:09.868Z,1005.88
2016-02-02T09:05:09.917Z,1005.83
2016-02-02T09:06:09.984Z,1005.89
2016-02-02T09:07:10.032Z,1005.9
2016-02-02T09:08:10.086Z,1005.92
2016-02-02T09:09:10.135Z,1005.91
2016-02-02T09:10:10.185Z,1005.97
2016-02-02T09:11:10.250Z,1005.95
2016-02-02T09:12:10.300Z,1005.97
2016-02-02T09:13:10.351Z,1005.92
2016-02-02T09:14:10.402Z,1005.98
2016-02-02T09:15:10.468Z,1005.97
2016-02-02T09:16:10.516Z,1005.98
2016-02-02T09:17:10.567Z,1005.9
2016-02-02T09:18:10.617Z,1005.91
2016-02-02T09:19:10.666Z,1005.98
2016-02-02T09:20:10.722Z,1005.89
2016-02-02T09:21:10.787Z,1005.86
2016-02-02T09:22:10.836Z,1005.85
2016-02-02T09:23:10.886Z,1005.86
2016-02-02T09:24:10.935Z,1005.81
2016-02-02T09:25:11.017Z,1005.81
2016-02-02T09:26:11.050Z,1005.78
2016-02-02T09:27:11.103Z,1005.74
2016-02-02T09:28:11.169Z,1005.69
2016-02-02T09:29:11.217Z,1005.7
2016-02-02T09:30:11.283Z,1005.75
2016-02-02T09:31:11.317Z,1005.75
2016-02-02T09:32:11.366Z,1005.72
2016-02-02T09:33:11.432Z,1005.71
2016-02-02T09:34:11.481Z,1005.63
2016-02-02T09:35:11.531Z,1005.66
2016-02-02T09:36:11.581Z,1005.61
2016-02-02T09:37:11.647Z,1005.64
2016-02-02T09:38:11.697Z,1005.62
2016-02-02T09:39:11.746Z,1005.6
2016-02-02T09:40:11.796Z,1005.54
2016-02-02T09:41:11.845Z,1005.46
2016-02-02T09:42:11.911Z,1005.46
2016-02-02T09:43:11.960Z,1005.52
2016-02-02T09:44:12.026Z,1005.47
2016-02-02T09:45:12.059Z,1005.52
2016-02-02T09:46:12.125Z,1005.48
2016-02-02T09:47:12.175Z,1005.49
2016-02-02T09:48:12.239Z,1005.51
2016-02-02T09:49:12.273Z,1005.53
2016-02-02T09:50:12.340Z,1005.49
2016-02-02T09:51:12.391Z,1005.47
2016-02-02T09:52:12.440Z,1005.5
2016-02-02T09:53:12.489Z,1005.49
2016-02-02T09:54:12.554Z,1005.46
2016-02-02T09:55:12.604Z,1005.35
2016-02-02T09:56:12.659Z,1005.32
2016-02-02T09:57:12.708Z,1005.41
2016-02-02T09:58:12.757Z,1005.38
2016-02-02T09:59:12.822Z,1005.39
2016-02-02T10:00:12.873Z,1005.47
2016-02-02T10:01:12.923Z,1005.44
2016-02-02T10:02:12.975Z,1005.6
2016-02-02T10:03:13.025Z,1005.52
2016-02-02T10:04:13.076Z,1005.54
2016-02-02T10:05:13.141Z,1005.54
2016-02-02T10:06:13.222Z,1005.52
2016-02-02T10:07:13.239Z,1005.5
2016-02-02T10:08:13.305Z,1005.58
2016-02-02T10:09:13.356Z,1005.48
2016-02-02T10:10:13.406Z,1005.51
2016-02-02T10:11:13.454Z,1005.51
2016-02-02T10:12:13.504Z,1005.39
2016-02-02T10:13:13.569Z,1005.43
2016-02-02T10:14:13.620Z,1005.43
2016-02-02T10:15:13.669Z,1005.37
2016-02-02T10:16:13.733Z,1005.36
2016-02-02T10:17:13.783Z,1005.4
2016-02-02T10:18:13.833Z,1005.3
2016-02-02T10:19:13.883Z,1005.39
2016-02-02T10:20:13.932Z,1005.37
2016-02-02T10:21:13.997Z,1005.43
2016-02-02T10:22:14.046Z,1005.44
2016-02-02T10:23:14.096Z,1005.35
2016-02-02T10:24:14.208Z,1005.34
2016-02-02T10:25:14.211Z,1005.36
2016-02-02T10:26:14.264Z,1005.35
2016-02-02T10:27:14.314Z,1005.31
2016-02-02T10:28:14.379Z,1005.32
2016-02-02T10:29:14.429Z,1005.31
2016-02-02T10:30:14.478Z,1005.31
2016-02-02T10:31:14.528Z,1005.36
2016-02-02T10:32:14.581Z,1005.37
2016-02-02T10:33:14.631Z,1005.4
2016-02-02T10:34:14.695Z,1005.39
2016-02-02T10:35:14.740Z,1005.45
2016-02-02T10:36:14.790Z,1005.45
2016-02-02T10:37:14.855Z,1005.38
2016-02-02T10:38:14.905Z,1005.41
2016-02-02T10:39:14.955Z,1005.43
2016-02-02T10:40:15.022Z,1005.5
2016-02-02T10:41:15.055Z,1005.45
2016-02-02T10:42:15.120Z,1005.6
2016-02-02T10:43:15.169Z,1005.46
2016-02-02T10:44:15.219Z,1005.45
2016-02-02T10:45:15.285Z,1005.39
2016-02-02T10:46:15.336Z,1005.46
2016-02-02T10:47:15.384Z,1005.48
2016-02-02T10:48:15.449Z,1005.48
2016-02-02T10:49:15.483Z,1005.46
2016-02-02T10:50:15.550Z,1005.39
2016-02-02T10:51:15.599Z,1005.44
2016-02-02T10:52:15.647Z,1005.42
2016-02-02T10:53:15.697Z,1005.36
2016-02-02T10:54:15.763Z,1005.4
2016-02-02T10:55:15.813Z,1005.31
2016-02-02T10:56:15.862Z,1005.36
2016-02-02T10:57:15.915Z,1005.25
2016-02-02T10:58:15.967Z,1005.33
2016-02-02T10:59:16.033Z,1005.3
2016-02-02T11:00:16.082Z,1005.26
2016-02-02T11:01:16.131Z,1005.25
2016-02-02T11:02:16.181Z,1005.3
2016-02-02T11:03:16.246Z,1005.29
2016-02-02T11:04:16.296Z,1005.25
2016-02-02T11:05:16.346Z,1005.17
2016-02-02T11:06:16.394Z,1005.17
2016-02-02T11:07:16.460Z,1005.23
2016-02-02T11:08:16.509Z,1005.14
2016-02-02T11:09:16.560Z,1005.13
2016-02-02T11:10:16.613Z,1005.06
2016-02-02T11:11:16.663Z,1005.09
2016-02-02T11:12:16.728Z,1005.05
2016-02-02T11:13:16.778Z,1005.01
2016-02-02T11:14:16.828Z,1004.97
2016-02-02T11:15:16.878Z,1004.93
2016-02-02T11:16:16.927Z,1005.01
2016-02-02T11:17:16.993Z,1004.94
2016-02-02T11:18:17.044Z,1004.89
2016-02-02T11:19:17.093Z,1004.97
2016-02-02T11:20:17.142Z,1004.87
2016-02-02T11:21:17.207Z,1004.92
2016-02-02T11:22:17.260Z,1005
2016-02-02T11:23:17.310Z,1004.92
2016-02-02T11:24:17.359Z,1004.81
2016-02-02T11:25:17.408Z,1004.82
2016-02-02T11:26:17.475Z,1004.72
2016-02-02T11:27:17.525Z,1004.73
2016-02-02T11:28:17.581Z,1004.79
2016-02-02T11:29:17.646Z,1004.73
2016-02-02T11:30:17.695Z,1004.77
2016-02-02T11:31:17.746Z,1004.66
2016-02-02T11:32:17.795Z,1004.69
2016-02-02T11:33:17.861Z,1004.62
2016-02-02T11:34:17.911Z,1004.7
2016-02-02T11:35:17.961Z,1004.54
2016-02-02T11:36:17.995Z,1004.62
2016-02-02T11:37:18.076Z,1004.59
2016-02-02T11:38:18.109Z,1004.51
2016-02-02T11:39:18.189Z,1004.59
2016-02-02T11:40:18.224Z,1004.53
2016-02-02T11:41:18.276Z,1004.53
2016-02-02T11:42:18.325Z,1004.56
2016-02-02T11:43:18.375Z,1004.59
2016-02-02T11:44:18.440Z,1004.61
2016-02-02T11:45:18.494Z,1004.57
2016-02-02T11:46:18.543Z,1004.52
2016-02-02T11:47:18.592Z,1004.59
2016-02-02T11:48:18.659Z,1004.62
2016-02-02T11:49:18.709Z,1004.59
2016-02-02T11:50:18.759Z,1004.56
2016-02-02T11:51:18.807Z,1004.55
2016-02-02T11:52:18.857Z,1004.54
2016-02-02T11:53:18.922Z,1004.5
2016-02-02T11:54:18.973Z,1004.56
2016-02-02T11:55:19.022Z,1004.5
2016-02-02T11:56:19.070Z,1004.56
2016-02-02T11:57:19.120Z,1004.56
2016-02-02T11:58:19.188Z,1004.62
2016-02-02T11:59:19.239Z,1004.68
2016-02-02T12:00:19.288Z,1004.66
2016-02-02T12:01:19.337Z,1004.67
2016-02-02T12:02:19.403Z,1004.68
2016-02-02T12:03:19.452Z,1004.67
2016-02-02T12:04:19.506Z,1004.67
2016-02-02T12:05:19.555Z,1004.68
2016-02-02T12:06:19.605Z,1004.79
2016-02-02T12:07:19.655Z,1004.77
2016-02-02T12:08:19.721Z,1004.79